createdAt,value
2023-05-14T00:00:17.254Z,15.70
2023-05-14T00:03:05.150Z,14.20
2023-05-14T00:05:33.144Z,15.70
2023-05-14T00:08:01.196Z,16.20
2023-05-14T00:10:29.108Z,15.10
2023-05-14T00:12:56.872Z,14.70
2023-05-14T00:15:24.979Z,14.90
2023-05-14T00:17:52.761Z,14.90
2023-05-14T00:20:20.800Z,15.00
2023-05-14T00:22:48.837Z,14.40
2023-05-14T00:25:16.600Z,15.30
2023-05-14T00:27:44.403Z,14.60
2023-05-14T00:30:12.493Z,15.40
2023-05-14T00:32:40.373Z,17.30
2023-05-14T00:35:08.570Z,19.70
2023-05-14T00:37:37.380Z,17.40
2023-05-14T00:40:06.921Z,16.60
2023-05-14T00:42:35.006Z,16.10
2023-05-14T00:45:02.970Z,16.10
2023-05-14T00:47:30.930Z,15.90
2023-05-14T00:49:58.753Z,14.80
2023-05-14T00:52:26.883Z,13.70
2023-05-14T00:54:54.895Z,12.80
2023-05-14T00:57:22.695Z,14.90
2023-05-14T00:59:50.840Z,14.30
2023-05-14T01:02:18.800Z,12.50
2023-05-14T01:04:46.686Z,11.60
2023-05-14T01:07:24.620Z,11.50
2023-05-14T01:09:59.704Z,10.90
2023-05-14T01:12:34.215Z,13.10
2023-05-14T01:15:04.719Z,13.60
2023-05-14T01:17:33.692Z,14.70
2023-05-14T01:20:02.065Z,14.10
2023-05-14T01:22:30.064Z,12.90
2023-05-14T01:24:57.949Z,13.10
2023-05-14T01:27:35.853Z,14.20
2023-05-14T01:30:23.512Z,15.00
2023-05-14T01:32:52.823Z,16.00
2023-05-14T01:35:22.730Z,17.80
2023-05-14T01:37:50.908Z,20.50
2023-05-14T01:40:18.913Z,20.40
2023-05-14T01:42:47.128Z,18.90
2023-05-14T01:45:15.169Z,19.20
2023-05-14T01:47:43.013Z,18.80
2023-05-14T01:50:11.137Z,18.40
2023-05-14T01:52:46.804Z,19.30
2023-05-14T01:55:22.076Z,18.50
2023-05-14T01:57:50.147Z,19.10
2023-05-14T02:00:18.279Z,17.80
2023-05-14T02:02:46.040Z,18.20
2023-05-14T02:05:14.005Z,21.00
2023-05-14T02:07:41.909Z,29.40
2023-05-14T02:10:10.149Z,20.80
2023-05-14T02:12:38.032Z,16.40
2023-05-14T02:15:06.182Z,16.20
2023-05-14T02:17:33.918Z,15.30
2023-05-14T02:20:01.653Z,14.10
2023-05-14T02:22:29.446Z,13.40
2023-05-14T02:25:00.687Z,14.20
2023-05-14T02:27:28.510Z,13.40
2023-05-14T02:30:00.790Z,14.80
2023-05-14T02:32:28.901Z,15.30
2023-05-14T02:34:56.707Z,14.80
2023-05-14T02:37:24.383Z,15.00
2023-05-14T02:39:54.651Z,13.70
2023-05-14T02:42:25.104Z,13.60
2023-05-14T02:44:53.087Z,14.20
2023-05-14T02:47:20.921Z,14.20
2023-05-14T02:49:48.857Z,15.60
2023-05-14T02:52:16.609Z,13.00
2023-05-14T02:54:44.521Z,13.70
2023-05-14T02:57:12.272Z,13.50
2023-05-14T02:59:39.998Z,13.30
2023-05-14T03:02:08.176Z,14.10
2023-05-14T03:04:36.849Z,13.10
2023-05-14T03:07:04.701Z,13.50
2023-05-14T03:09:32.432Z,12.60
2023-05-14T03:12:00.392Z,14.00
2023-05-14T03:14:37.598Z,13.30
2023-05-14T03:17:05.899Z,13.80
2023-05-14T03:19:33.800Z,14.90
2023-05-14T03:22:01.902Z,15.60
2023-05-14T03:24:29.682Z,14.70
2023-05-14T03:26:57.459Z,14.00
2023-05-14T03:29:25.263Z,14.20
2023-05-14T03:31:54.411Z,13.70
2023-05-14T03:34:22.437Z,14.20
2023-05-14T03:36:50.453Z,13.30
2023-05-14T03:39:19.926Z,13.40
2023-05-14T03:41:47.997Z,13.90
2023-05-14T03:44:15.902Z,15.10
2023-05-14T03:46:43.753Z,14.70
2023-05-14T03:49:11.609Z,15.30
2023-05-14T03:51:39.543Z,15.50
2023-05-14T03:54:07.579Z,16.20
2023-05-14T03:56:35.487Z,17.30
2023-05-14T03:59:03.289Z,15.10
2023-05-14T04:01:34.399Z,14.00
2023-05-14T04:04:02.248Z,14.20
2023-05-14T04:06:30.161Z,14.60
2023-05-14T04:08:57.991Z,12.40
2023-05-14T04:11:25.843Z,11.60
2023-05-14T04:13:53.598Z,12.00
2023-05-14T04:16:21.630Z,12.30
2023-05-14T04:18:49.463Z,12.00
2023-05-14T04:21:17.363Z,12.30
2023-05-14T04:23:45.107Z,11.60
2023-05-14T04:26:13.054Z,12.90
2023-05-14T04:28:40.976Z,11.80
2023-05-14T04:31:08.709Z,12.40
2023-05-14T04:33:36.467Z,12.30
2023-05-14T04:36:05.759Z,11.40
2023-05-14T04:38:35.917Z,12.40
2023-05-14T04:41:03.707Z,11.50
2023-05-14T04:43:31.519Z,11.50
2023-05-14T04:45:59.436Z,10.00
2023-05-14T04:48:27.471Z,11.10
2023-05-14T04:50:55.290Z,11.50
2023-05-14T04:53:23.179Z,12.40
2023-05-14T04:55:51.930Z,12.20
2023-05-14T04:58:19.791Z,10.90
2023-05-14T05:00:47.672Z,11.10
2023-05-14T05:03:15.745Z,12.10
2023-05-14T05:05:43.608Z,11.60
2023-05-14T05:08:11.565Z,12.20
2023-05-14T05:10:39.453Z,12.70
2023-05-14T05:13:07.273Z,12.70
2023-05-14T05:15:35.424Z,12.90
2023-05-14T05:18:03.659Z,12.80
2023-05-14T05:20:32.336Z,12.70
2023-05-14T05:23:00.289Z,12.40
2023-05-14T05:25:28.287Z,12.50
2023-05-14T05:27:56.074Z,12.60
2023-05-14T05:30:24.058Z,12.80
2023-05-14T05:32:51.977Z,12.50
2023-05-14T05:35:19.955Z,12.20
2023-05-14T05:37:47.827Z,12.40
2023-05-14T05:40:15.876Z,12.40
2023-05-14T05:42:43.758Z,12.40
2023-05-14T05:45:11.555Z,13.10
2023-05-14T05:47:39.408Z,12.70
2023-05-14T05:50:07.668Z,13.30
2023-05-14T05:52:35.576Z,12.20
2023-05-14T05:55:03.742Z,12.50
2023-05-14T05:57:31.657Z,13.30
2023-05-14T05:59:59.451Z,11.70
2023-05-14T06:02:27.244Z,13.30
2023-05-14T06:04:55.543Z,12.50
2023-05-14T06:07:23.435Z,13.50
2023-05-14T06:09:51.237Z,11.50
2023-05-14T06:12:19.169Z,12.00
2023-05-14T06:14:46.916Z,11.80
2023-05-14T06:17:14.783Z,12.20
2023-05-14T06:19:42.562Z,11.70
2023-05-14T06:22:10.403Z,12.30
2023-05-14T06:24:38.275Z,12.40
2023-05-14T06:27:06.339Z,11.80
2023-05-14T06:29:34.101Z,11.60
2023-05-14T06:32:02.287Z,11.90
2023-05-14T06:34:30.426Z,12.20
2023-05-14T06:36:58.234Z,11.60
2023-05-14T06:39:26.117Z,11.50
2023-05-14T06:41:53.879Z,10.50
2023-05-14T06:44:21.659Z,10.50
2023-05-14T06:46:49.398Z,10.40
2023-05-14T06:49:17.379Z,10.80
2023-05-14T06:51:45.805Z,10.40
2023-05-14T06:54:13.607Z,9.50
2023-05-14T06:56:41.340Z,9.60
2023-05-14T06:59:09.097Z,9.10
2023-05-14T07:01:37.433Z,9.30
2023-05-14T07:04:05.394Z,9.40
2023-05-14T07:06:33.252Z,8.90
2023-05-14T07:09:01.593Z,8.90
2023-05-14T07:11:29.470Z,8.90
2023-05-14T07:13:57.260Z,8.20
2023-05-14T07:16:25.153Z,9.00
2023-05-14T07:18:52.985Z,8.10
2023-05-14T07:21:20.777Z,7.70
2023-05-14T07:23:48.628Z,7.10
2023-05-14T07:26:16.352Z,7.60
2023-05-14T07:28:44.044Z,6.90
2023-05-14T07:31:11.920Z,6.60
2023-05-14T07:33:39.765Z,7.20
2023-05-14T07:36:11.291Z,7.50
2023-05-14T07:38:39.583Z,7.50
2023-05-14T07:41:07.949Z,6.70
2023-05-14T07:43:35.617Z,7.10
2023-05-14T07:46:03.277Z,6.90
2023-05-14T07:48:31.028Z,7.30
2023-05-14T07:50:58.979Z,6.80
2023-05-14T07:53:26.911Z,6.60
2023-05-14T07:55:54.851Z,6.10
2023-05-14T07:58:23.591Z,6.70
2023-05-14T08:00:51.383Z,5.90
2023-05-14T08:03:19.284Z,6.80
2023-05-14T08:05:47.131Z,5.50
2023-05-14T08:08:14.863Z,5.40
2023-05-14T08:10:42.683Z,4.50
2023-05-14T08:13:10.971Z,5.50
2023-05-14T08:15:38.725Z,4.80
2023-05-14T08:18:06.430Z,5.30
2023-05-14T08:20:34.254Z,4.70
2023-05-14T08:23:01.997Z,4.90
2023-05-14T08:25:29.690Z,5.00
2023-05-14T08:27:59.742Z,4.90
2023-05-14T08:30:28.010Z,4.70
2023-05-14T08:32:55.939Z,3.80
2023-05-14T08:35:23.787Z,3.20
2023-05-14T08:37:52.409Z,3.80
2023-05-14T08:40:20.299Z,3.70
2023-05-14T08:42:48.673Z,3.40
2023-05-14T08:45:20.768Z,3.60
2023-05-14T08:47:53.063Z,3.60
2023-05-14T08:50:23.560Z,3.50
2023-05-14T08:52:52.052Z,3.90
2023-05-14T08:55:19.997Z,3.60
2023-05-14T08:57:48.141Z,3.90
2023-05-14T09:00:16.116Z,3.60
2023-05-14T09:02:44.772Z,3.40
2023-05-14T09:05:13.261Z,3.90
2023-05-14T09:07:41.338Z,3.20
2023-05-14T09:10:09.487Z,3.40
2023-05-14T09:12:37.303Z,3.30
2023-05-14T09:15:05.392Z,3.40
2023-05-14T09:17:33.537Z,3.00
2023-05-14T09:20:01.471Z,3.00
2023-05-14T09:22:30.183Z,3.10
2023-05-14T09:25:05.989Z,2.90
2023-05-14T09:27:34.296Z,3.00
2023-05-14T09:30:09.574Z,2.90
2023-05-14T09:32:38.251Z,2.70
2023-05-14T09:35:17.976Z,2.70
2023-05-14T09:37:47.029Z,3.10
2023-05-14T09:40:15.246Z,3.10
2023-05-14T09:42:43.071Z,3.00
2023-05-14T09:45:11.586Z,3.10
2023-05-14T09:47:40.069Z,2.80
2023-05-14T09:50:08.491Z,2.50
2023-05-14T09:52:37.348Z,3.10
2023-05-14T09:55:05.942Z,3.10
2023-05-14T09:57:34.672Z,2.50
2023-05-14T10:00:02.926Z,2.70
2023-05-14T10:02:37.658Z,3.20
2023-05-14T10:05:07.051Z,3.00
2023-05-14T10:07:46.684Z,2.80
2023-05-14T10:10:16.798Z,2.70
2023-05-14T10:12:46.498Z,2.60
2023-05-14T10:15:17.981Z,2.40
2023-05-14T10:17:48.730Z,2.70
2023-05-14T10:20:19.472Z,2.20
2023-05-14T10:22:47.424Z,2.90
2023-05-14T10:25:15.713Z,3.40
2023-05-14T10:27:43.916Z,2.70
2023-05-14T10:30:12.823Z,2.30
2023-05-14T10:32:42.048Z,2.50
2023-05-14T10:35:17.430Z,2.80
2023-05-14T10:37:46.564Z,3.10
2023-05-14T10:40:14.651Z,3.10
2023-05-14T10:42:45.468Z,2.90
2023-05-14T10:45:14.766Z,3.00
2023-05-14T10:47:43.560Z,3.30
2023-05-14T10:50:12.768Z,2.80
2023-05-14T10:52:43.940Z,2.90
2023-05-14T10:55:16.076Z,2.60
2023-05-14T10:57:44.671Z,2.60
2023-05-14T11:00:13.291Z,2.30
2023-05-14T11:02:42.227Z,2.30
2023-05-14T11:05:13.959Z,2.10
2023-05-14T11:07:42.699Z,2.20
2023-05-14T11:10:11.385Z,2.10
2023-05-14T11:12:40.927Z,2.50
2023-05-14T11:15:10.081Z,2.00
2023-05-14T11:17:38.799Z,2.10
2023-05-14T11:20:08.095Z,2.10
2023-05-14T11:22:36.258Z,2.70
2023-05-14T11:25:04.256Z,2.00
2023-05-14T11:27:33.604Z,2.20
2023-05-14T11:30:01.786Z,2.10
2023-05-14T11:32:31.857Z,2.40
2023-05-14T11:34:59.706Z,2.60
2023-05-14T11:37:27.468Z,2.30
2023-05-14T11:39:55.846Z,3.00
2023-05-14T11:42:23.894Z,2.50
2023-05-14T11:45:03.729Z,2.30
2023-05-14T11:47:31.894Z,2.40
2023-05-14T11:50:00.855Z,2.30
2023-05-14T11:52:28.693Z,2.80
2023-05-14T11:54:56.471Z,1.90
2023-05-14T11:57:24.282Z,2.30
2023-05-14T11:59:57.934Z,2.40
2023-05-14T12:02:27.877Z,2.20
2023-05-14T12:04:56.265Z,1.80
2023-05-14T12:07:23.979Z,1.70
2023-05-14T12:09:51.792Z,1.90
2023-05-14T12:12:20.919Z,1.50
2023-05-14T12:14:49.687Z,1.50
2023-05-14T12:17:18.620Z,1.40
2023-05-14T12:19:50.719Z,1.70
2023-05-14T12:22:19.693Z,2.10
2023-05-14T12:24:54.341Z,2.40
2023-05-14T12:27:23.527Z,1.80
2023-05-14T12:32:26.939Z,2.00
2023-05-14T12:34:54.806Z,1.80
2023-05-14T12:37:22.727Z,2.10
2023-05-14T12:39:50.395Z,1.70
2023-05-14T12:42:18.181Z,2.10
2023-05-14T12:44:46.526Z,2.00
2023-05-14T12:47:15.145Z,2.20
2023-05-14T12:49:43.115Z,2.00
2023-05-14T12:54:43.454Z,2.20
2023-05-14T12:57:11.405Z,2.20
2023-05-14T12:59:39.180Z,2.30
2023-05-14T13:02:07.149Z,2.30
2023-05-14T13:04:35.177Z,2.20
2023-05-14T13:07:03.423Z,2.40
2023-05-14T13:09:31.217Z,2.60
2023-05-14T13:11:59.076Z,2.50
2023-05-14T13:14:26.847Z,2.30
2023-05-14T13:16:54.732Z,3.50
2023-05-14T13:19:22.846Z,2.50
2023-05-14T13:21:50.548Z,2.30
2023-05-14T13:24:18.359Z,2.90
2023-05-14T13:26:46.182Z,2.40
2023-05-14T13:29:14.190Z,2.50
2023-05-14T13:31:42.116Z,2.40
2023-05-14T13:34:10.390Z,3.10
2023-05-14T13:36:39.766Z,2.70
2023-05-14T13:39:07.703Z,2.70
2023-05-14T13:41:35.960Z,2.60
2023-05-14T13:44:04.406Z,2.80
2023-05-14T13:46:32.120Z,3.00
2023-05-14T13:48:59.937Z,2.80
2023-05-14T13:51:27.642Z,2.60
2023-05-14T13:53:55.666Z,2.80
2023-05-14T13:56:23.953Z,2.80
2023-05-14T13:58:51.842Z,2.40
2023-05-14T14:01:19.680Z,2.70
2023-05-14T14:03:47.664Z,2.40
2023-05-14T14:06:15.355Z,2.30
2023-05-14T14:08:43.265Z,2.30
2023-05-14T14:11:11.093Z,2.00
2023-05-14T14:13:39.908Z,2.60
2023-05-14T14:16:07.759Z,2.00
2023-05-14T14:18:35.656Z,1.80
2023-05-14T14:21:03.453Z,2.10
2023-05-14T14:23:31.292Z,2.20
2023-05-14T14:25:59.022Z,2.30
2023-05-14T14:28:26.754Z,2.10
2023-05-14T14:30:54.495Z,2.10
2023-05-14T14:33:22.295Z,2.30
2023-05-14T14:35:50.160Z,2.60
2023-05-14T14:38:18.055Z,2.50
2023-05-14T14:40:46.403Z,2.20
2023-05-14T14:43:14.327Z,2.80
2023-05-14T14:45:42.952Z,2.80
2023-05-14T14:48:24.708Z,2.60
2023-05-14T14:50:52.949Z,2.90
2023-05-14T14:53:21.436Z,2.50
2023-05-14T14:55:49.951Z,2.90
2023-05-14T14:58:18.541Z,2.80
2023-05-14T15:00:46.540Z,2.50
2023-05-14T15:03:15.153Z,2.00
2023-05-14T15:05:43.177Z,2.60
2023-05-14T15:08:10.854Z,2.90
2023-05-14T15:10:38.710Z,2.10
2023-05-14T15:13:06.667Z,2.30
2023-05-14T15:15:35.041Z,2.50
2023-05-14T15:18:03.527Z,2.70
2023-05-14T15:20:31.342Z,1.60
2023-05-14T15:22:59.174Z,2.00
2023-05-14T15:25:27.087Z,1.70
2023-05-14T15:27:55.210Z,1.50
2023-05-14T15:30:23.035Z,1.80
2023-05-14T15:32:50.975Z,1.20
2023-05-14T15:35:18.716Z,1.90
2023-05-14T15:37:46.429Z,1.60
2023-05-14T15:40:14.210Z,2.30
2023-05-14T15:42:43.053Z,1.50
2023-05-14T15:45:12.445Z,1.70
2023-05-14T15:47:41.096Z,1.30
2023-05-14T15:50:09.272Z,1.60
2023-05-14T15:52:37.180Z,1.60
2023-05-14T15:55:08.163Z,1.30
2023-05-14T15:57:35.933Z,1.30
2023-05-14T16:00:11.124Z,1.30
2023-05-14T16:02:39.355Z,1.40
2023-05-14T16:05:08.313Z,1.50
2023-05-14T16:07:36.374Z,1.30
2023-05-14T16:10:04.979Z,1.30
2023-05-14T16:12:32.961Z,1.30
2023-05-14T16:15:01.074Z,1.60
2023-05-14T16:17:30.477Z,1.40
2023-05-14T16:19:59.605Z,1.30
2023-05-14T16:22:29.122Z,1.30
2023-05-14T16:24:56.811Z,1.00
2023-05-14T16:27:24.793Z,1.20
2023-05-14T16:29:53.057Z,1.10
2023-05-14T16:32:21.719Z,2.20
2023-05-14T16:34:52.288Z,1.20
2023-05-14T16:37:20.515Z,1.10
2023-05-14T16:39:48.834Z,1.40
2023-05-14T16:42:16.628Z,1.20
2023-05-14T16:44:44.371Z,1.20
2023-05-14T16:47:12.133Z,1.30
2023-05-14T16:49:40.080Z,1.60
2023-05-14T16:52:08.448Z,1.20
2023-05-14T16:54:36.462Z,0.90
2023-05-14T16:57:05.096Z,1.20
2023-05-14T16:59:33.181Z,0.90
2023-05-14T17:02:01.235Z,1.20
2023-05-14T17:04:29.228Z,1.30
2023-05-14T17:06:57.533Z,1.00
2023-05-14T17:09:25.394Z,1.10
2023-05-14T17:11:53.286Z,1.30
2023-05-14T17:14:21.225Z,1.60
2023-05-14T17:16:49.154Z,2.00
2023-05-14T17:19:16.918Z,1.50
2023-05-14T17:21:44.931Z,2.50
2023-05-14T17:24:12.695Z,3.20
2023-05-14T17:26:40.518Z,1.80
2023-05-14T17:29:08.245Z,3.20
2023-05-14T17:31:36.143Z,3.80
2023-05-14T17:34:03.903Z,3.50
2023-05-14T17:36:32.390Z,3.10
2023-05-14T17:39:00.209Z,1.90
2023-05-14T17:41:28.004Z,1.60
2023-05-14T17:43:55.945Z,1.70
2023-05-14T17:46:23.930Z,1.60
2023-05-14T17:48:51.676Z,1.80
2023-05-14T17:51:19.486Z,1.60
2023-05-14T17:53:47.309Z,1.60
2023-05-14T17:56:17.250Z,1.50
2023-05-14T17:58:45.764Z,1.50
2023-05-14T18:01:13.512Z,1.30
2023-05-14T18:03:41.467Z,1.40
2023-05-14T18:06:09.423Z,1.20
2023-05-14T18:08:37.315Z,1.40
2023-05-14T18:11:05.077Z,1.60
2023-05-14T18:13:32.755Z,1.70
2023-05-14T18:16:01.206Z,1.40
2023-05-14T18:18:29.257Z,1.60
2023-05-14T18:20:57.087Z,1.90
2023-05-14T18:23:24.856Z,3.40
2023-05-14T18:25:52.770Z,3.10
2023-05-14T18:28:21.561Z,3.30
2023-05-14T18:30:49.845Z,3.50
2023-05-14T18:33:17.829Z,4.20
2023-05-14T18:35:45.628Z,4.30
2023-05-14T18:38:13.922Z,4.40
2023-05-14T18:40:41.760Z,4.20
2023-05-14T18:43:10.926Z,5.10
2023-05-14T18:45:41.880Z,6.90
2023-05-14T18:48:10.465Z,9.30
2023-05-14T18:50:39.475Z,7.30
2023-05-14T18:53:07.823Z,6.00
2023-05-14T18:55:37.151Z,5.20
2023-05-14T18:58:05.052Z,3.70
2023-05-14T19:00:33.058Z,3.30
2023-05-14T19:03:00.986Z,2.60
2023-05-14T19:05:28.814Z,2.70
2023-05-14T19:07:56.929Z,2.50
2023-05-14T19:10:24.769Z,2.80
2023-05-14T19:12:52.762Z,3.40
2023-05-14T19:15:20.570Z,3.30
2023-05-14T19:17:49.170Z,7.20
2023-05-14T19:20:17.135Z,7.10
2023-05-14T19:22:44.896Z,6.80
2023-05-14T19:25:12.778Z,8.20
2023-05-14T19:27:40.707Z,9.20
2023-05-14T19:30:08.749Z,7.30
2023-05-14T19:32:37.945Z,9.20
2023-05-14T19:35:06.197Z,9.80
2023-05-14T19:37:34.063Z,9.80
2023-05-14T19:40:01.955Z,11.30
2023-05-14T19:42:30.708Z,10.30
2023-05-14T19:44:58.528Z,9.40
2023-05-14T19:47:27.560Z,11.20
2023-05-14T19:49:55.338Z,9.00
2023-05-14T19:52:24.397Z,9.60
2023-05-14T19:54:52.319Z,7.20
2023-05-14T19:57:20.411Z,7.70
2023-05-14T19:59:48.240Z,8.50
2023-05-14T20:02:18.431Z,7.60
2023-05-14T20:04:47.487Z,8.10
2023-05-14T20:07:18.489Z,7.20
2023-05-14T20:09:46.768Z,6.00
2023-05-14T20:12:14.890Z,6.70
2023-05-14T20:14:45.855Z,8.10
2023-05-14T20:17:13.852Z,7.30
2023-05-14T20:19:41.909Z,6.40
2023-05-14T20:22:09.759Z,6.00
2023-05-14T20:24:37.592Z,5.50
2023-05-14T20:27:05.473Z,4.80
2023-05-14T20:29:33.514Z,4.60
2023-05-14T20:32:01.688Z,4.40
2023-05-14T20:34:30.341Z,3.40
2023-05-14T20:36:58.282Z,3.20
2023-05-14T20:39:26.371Z,4.50
2023-05-14T20:41:54.108Z,5.50
2023-05-14T20:44:25.219Z,5.80
2023-05-14T20:46:53.062Z,7.50
2023-05-14T20:49:20.863Z,6.90
2023-05-14T20:51:48.800Z,8.30
2023-05-14T20:54:16.627Z,9.90
2023-05-14T20:56:44.632Z,7.90
2023-05-14T20:59:12.417Z,8.20
2023-05-14T21:01:40.257Z,9.10
2023-05-14T21:04:08.355Z,9.10
2023-05-14T21:06:36.310Z,8.80
2023-05-14T21:09:04.134Z,8.60
2023-05-14T21:11:31.871Z,11.50
2023-05-14T21:13:59.613Z,11.20
2023-05-14T21:16:27.574Z,7.80
2023-05-14T21:18:55.610Z,5.90
2023-05-14T21:21:23.414Z,5.90
2023-05-14T21:23:53.656Z,6.30
2023-05-14T21:26:24.409Z,6.70
2023-05-14T21:28:52.353Z,5.70
2023-05-14T21:31:20.114Z,6.30
2023-05-14T21:33:48.171Z,6.20
2023-05-14T21:36:16.107Z,6.90
2023-05-14T21:38:43.958Z,6.80
2023-05-14T21:41:11.899Z,4.80
2023-05-14T21:43:40.856Z,3.20
2023-05-14T21:46:08.815Z,3.90
2023-05-14T21:48:36.862Z,3.50
2023-05-14T21:51:05.087Z,3.40
2023-05-14T21:53:32.902Z,3.30
2023-05-14T21:56:00.792Z,2.80
2023-05-14T21:58:28.616Z,3.20
2023-05-14T22:00:56.399Z,3.30
2023-05-14T22:03:24.288Z,3.00
2023-05-14T22:05:53.292Z,3.70
2023-05-14T22:08:21.075Z,3.30
2023-05-14T22:10:48.801Z,3.50
2023-05-14T22:13:16.663Z,3.60
2023-05-14T22:15:44.614Z,3.50
2023-05-14T22:18:13.084Z,3.30
2023-05-14T22:20:41.523Z,3.20
2023-05-14T22:23:09.358Z,3.60
2023-05-14T22:25:37.139Z,2.80
2023-05-14T22:28:12.571Z,2.90
2023-05-14T22:30:40.409Z,3.30
2023-05-14T22:33:08.304Z,3.60
2023-05-14T22:35:36.207Z,3.00
2023-05-14T22:38:03.920Z,3.10
2023-05-14T22:40:31.888Z,3.30
2023-05-14T22:42:59.815Z,3.40
2023-05-14T22:45:27.500Z,3.30
2023-05-14T22:47:55.356Z,3.20
2023-05-14T22:50:23.205Z,3.30
2023-05-14T22:52:51.048Z,3.70
2023-05-14T22:55:18.857Z,3.60
2023-05-14T22:57:46.649Z,3.40
2023-05-14T23:00:14.648Z,3.40
2023-05-14T23:02:42.590Z,3.60
2023-05-14T23:05:10.399Z,3.60
2023-05-14T23:07:38.265Z,4.50
2023-05-14T23:10:06.474Z,4.30
2023-05-14T23:12:34.264Z,3.90
2023-05-14T23:15:02.089Z,3.60
2023-05-14T23:17:29.998Z,3.70
2023-05-14T23:19:57.936Z,3.80
2023-05-14T23:22:28.181Z,3.60
2023-05-14T23:24:55.916Z,3.70
2023-05-14T23:27:23.836Z,4.10
2023-05-14T23:29:51.596Z,4.30
2023-05-14T23:32:19.539Z,4.00
2023-05-14T23:34:47.324Z,3.80
2023-05-14T23:37:15.152Z,4.40
2023-05-14T23:39:46.109Z,4.20
2023-05-14T23:42:13.988Z,4.10
2023-05-14T23:44:41.869Z,5.90
2023-05-14T23:47:09.662Z,6.00
2023-05-14T23:49:40.782Z,4.70
2023-05-14T23:52:08.713Z,4.30
2023-05-14T23:54:36.571Z,5.10
2023-05-14T23:57:04.611Z,7.70
2023-05-14T23:59:44.898Z,11.60
